Belle Mina, Alabama
Current Conditions -  °F | °C
As of 12:53 AM on Sunday 28 Dec 2014 (Local Time) from KDCU Reporting Station
Light Rain Light Rain  
Wind Chill: 55°   Ceiling: 6500
Heat Index: 55°   Visibility: 10mi
Dew Point: 54°   Wind: 12mph
Humidity: 96%   Direction: 170°S
Pressure: 30.04"   Gusts: NA
Location:  34.66°N, 86.88°W
Report Text: KDCU 280653Z AUTO 17010KT 10SM -RA SCT050 BKN065 OVC100 13/12 A3004 RMK AO2 SLP172 P0002 T01280122 $
Loading
Personal Weather Stations






























Interactive Weather Map New forecast layout! Learn more

10-Day Weather Forecast

Advertisements
Track Severe Weather on mobile